Time;durP1;ratioP1;P1;durP2;ratioP2;P2;SDS_P1;SDS_P2;PMS_P1;PMS_P2;Temp;Humidity;BMP_temperature;BMP_pressure;BME280_temperature;BME280_humidity;BME280_pressure;Samples;Min_cycle;Max_cycle;Signal;HPM_P1;HPM_P2
2024/01/06 00:00:39;;;;;;;8.13;7.43;;;;;;;;;;5135788;27;20558;-78
2024/01/06 00:03:05;;;;;;;9.02;8.23;;;;;;;;;;5117389;27;20074;-78
2024/01/06 00:05:31;;;;;;;8.98;8.18;;;;;;;;;;5135946;27;20039;-79
2024/01/06 00:07:57;;;;;;;8.88;8.07;;;;;;;;;;5136023;27;20050;-79
2024/01/06 00:10:23;;;;;;;10.45;9.45;;;;;;;;;;5117976;27;20047;-79
2024/01/06 00:12:49;;;;;;;9.60;8.60;;;;;;;;;;5118122;27;20482;-79
2024/01/06 00:15:16;;;;;;;10.45;9.43;;;;;;;;;;5117967;27;20457;-78
2024/01/06 00:17:42;;;;;;;10.27;9.27;;;;;;;;;;5117825;27;20043;-78
2024/01/06 00:20:08;;;;;;;9.35;8.55;;;;;;;;;;5135707;27;20130;-78
2024/01/06 00:22:35;;;;;;;8.82;8.00;;;;;;;;;;5117203;27;20053;-78
2024/01/06 00:25:01;;;;;;;9.48;8.57;;;;;;;;;;5135562;27;20043;-78
2024/01/06 00:27:27;;;;;;;10.15;9.15;;;;;;;;;;5135560;27;20047;-78
2024/01/06 00:29:53;;;;;;;9.88;8.98;;;;;;;;;;5135573;27;20047;-78
2024/01/06 00:32:19;;;;;;;9.88;8.95;;;;;;;;;;5117395;27;20088;-78
2024/01/06 00:34:46;;;;;;;9.95;9.05;;;;;;;;;;5135453;27;20047;-78
2024/01/06 00:37:12;;;;;;;10.60;9.57;;;;;;;;;;5135431;27;20047;-78
2024/01/06 00:39:38;;;;;;;11.20;10.13;;;;;;;;;;5135788;27;20045;-78
2024/01/06 00:42:04;;;;;;;11.32;9.77;;;;;;;;;;5116885;27;20155;-78
2024/01/06 00:44:30;;;;;;;11.18;10.18;;;;;;;;;;5116882;27;20066;-78
2024/01/06 00:46:56;;;;;;;11.13;10.02;;;;;;;;;;5135298;27;20055;-78
2024/01/06 00:49:22;;;;;;;12.40;11.10;;;;;;;;;;5117436;27;20069;-78
2024/01/06 00:51:48;;;;;;;12.38;11.18;;;;;;;;;;5116940;27;20445;-78
2024/01/06 00:54:14;;;;;;;12.93;11.73;;;;;;;;;;5136024;27;20066;-78
2024/01/06 00:56:42;;;;;;;11.55;10.27;;;;;;;;;;5135117;27;20123;-78
2024/01/06 00:59:08;;;;;;;12.68;11.48;;;;;;;;;;5116948;27;20536;-78
2024/01/06 01:01:34;;;;;;;13.23;11.93;;;;;;;;;;5134708;27;20402;-78
2024/01/06 01:04:00;;;;;;;11.27;10.18;;;;;;;;;;5116691;27;20574;-78
2024/01/06 01:06:26;;;;;;;12.10;10.90;;;;;;;;;;5117115;27;20053;-78
2024/01/06 01:08:52;;;;;;;12.65;11.45;;;;;;;;;;5134914;27;20467;-78
2024/01/06 01:11:18;;;;;;;13.70;12.30;;;;;;;;;;5116826;27;20064;-78
2024/01/06 01:13:44;;;;;;;13.77;12.32;;;;;;;;;;5116829;28;20039;-78
2024/01/06 01:16:10;;;;;;;13.55;12.15;;;;;;;;;;5115831;27;20082;-78
2024/01/06 01:18:37;;;;;;;14.27;12.73;;;;;;;;;;5116804;27;20046;-78
2024/01/06 01:21:03;;;;;;;13.55;12.15;;;;;;;;;;5116318;27;20055;-78
2024/01/06 01:23:29;;;;;;;13.60;11.93;;;;;;;;;;5134759;27;20051;-78
2024/01/06 01:25:55;;;;;;;15.90;13.77;;;;;;;;;;5134818;27;20046;-78
2024/01/06 01:28:21;;;;;;;16.08;14.48;;;;;;;;;;5134730;28;20140;-79
2024/01/06 01:30:47;;;;;;;17.45;15.65;;;;;;;;;;5134651;28;20043;-78
2024/01/06 01:33:13;;;;;;;18.25;16.10;;;;;;;;;;5134751;28;20410;-78
2024/01/06 01:35:39;;;;;;;18.27;16.35;;;;;;;;;;5134875;28;20046;-78
2024/01/06 01:38:05;;;;;;;18.13;15.90;;;;;;;;;;5134686;28;20070;-78
2024/01/06 01:40:31;;;;;;;18.23;16.30;;;;;;;;;;5116643;28;20122;-79
2024/01/06 01:42:57;;;;;;;17.63;15.73;;;;;;;;;;5116537;28;20391;-78
2024/01/06 01:45:23;;;;;;;18.83;16.90;;;;;;;;;;5112554;28;20448;-78
2024/01/06 01:47:50;;;;;;;19.58;16.42;;;;;;;;;;5113996;28;20127;-79
2024/01/06 01:50:16;;;;;;;18.55;15.77;;;;;;;;;;5113005;28;20051;-78
2024/01/06 01:52:42;;;;;;;18.00;14.95;;;;;;;;;;5113519;28;20079;-79
2024/01/06 01:55:08;;;;;;;17.35;15.40;;;;;;;;;;5113907;28;20050;-79
2024/01/06 01:57:35;;;;;;;16.33;14.60;;;;;;;;;;5112906;28;20127;-78
2024/01/06 02:00:02;;;;;;;20.17;15.90;;;;;;;;;;5113827;28;20400;-78
2024/01/06 02:02:29;;;;;;;16.88;15.07;;;;;;;;;;5112902;28;20100;-78
2024/01/06 02:04:56;;;;;;;17.58;15.23;;;;;;;;;;5112546;28;20035;-78
2024/01/06 02:07:22;;;;;;;18.63;16.35;;;;;;;;;;5113783;28;20180;-78
2024/01/06 02:09:48;;;;;;;19.05;17.13;;;;;;;;;;5113740;28;20131;-78
2024/01/06 02:12:14;;;;;;;19.30;16.95;;;;;;;;;;5112724;28;20051;-78
2024/01/06 02:14:42;;;;;;;16.95;14.85;;;;;;;;;;5113711;28;20395;-78
2024/01/06 02:17:08;;;;;;;19.45;17.42;;;;;;;;;;5112762;28;20483;-78
2024/01/06 02:19:34;;;;;;;18.77;16.77;;;;;;;;;;5114078;28;20047;-78
2024/01/06 02:22:00;;;;;;;17.90;15.85;;;;;;;;;;5095321;28;20484;-79
2024/01/06 02:24:27;;;;;;;18.58;16.58;;;;;;;;;;5112461;28;20513;-78
2024/01/06 02:26:53;;;;;;;20.90;17.30;;;;;;;;;;5115196;28;20108;-78
2024/01/06 02:29:19;;;;;;;21.08;17.45;;;;;;;;;;5116416;28;20044;-78
2024/01/06 02:31:45;;;;;;;21.73;17.95;;;;;;;;;;5116405;28;20043;-78
2024/01/06 02:34:11;;;;;;;21.42;18.42;;;;;;;;;;5116036;28;20050;-78
2024/01/06 02:36:37;;;;;;;20.95;17.80;;;;;;;;;;5117207;28;20127;-79
2024/01/06 02:39:03;;;;;;;22.10;18.85;;;;;;;;;;5117171;28;20079;-78
2024/01/06 02:41:29;;;;;;;24.17;18.67;;;;;;;;;;5116211;28;20058;-78
2024/01/06 02:43:56;;;;;;;20.48;17.92;;;;;;;;;;5124540;27;20058;-78
2024/01/06 02:46:22;;;;;;;19.75;17.40;;;;;;;;;;5137561;27;20043;-78
2024/01/06 02:48:48;;;;;;;20.65;17.40;;;;;;;;;;5119342;27;20479;-78
2024/01/06 02:51:14;;;;;;;22.98;19.08;;;;;;;;;;5136797;27;20043;-79
2024/01/06 02:53:40;;;;;;;21.48;18.65;;;;;;;;;;5119446;27;20050;-78
2024/01/06 02:56:10;;;;;;;19.90;16.42;;;;;;;;;;5137450;27;20047;-78
2024/01/06 02:58:37;;;;;;;17.30;14.95;;;;;;;;;;5137973;27;20055;-79
2024/01/06 03:01:03;;;;;;;17.55;14.95;;;;;;;;;;5137110;27;20046;-79
2024/01/06 03:03:29;;;;;;;19.92;16.73;;;;;;;;;;5137230;27;20046;-79
2024/01/06 03:05:55;;;;;;;21.17;16.85;;;;;;;;;;5118596;27;20081;-79
2024/01/06 03:08:22;;;;;;;19.38;17.17;;;;;;;;;;5137177;27;20459;-79
2024/01/06 03:10:49;;;;;;;18.67;16.67;;;;;;;;;;5119049;27;20051;-79
2024/01/06 03:13:15;;;;;;;18.60;15.95;;;;;;;;;;5118894;27;20479;-78
2024/01/06 03:15:41;;;;;;;18.10;15.85;;;;;;;;;;5118514;27;20474;-78
2024/01/06 03:18:08;;;;;;;17.98;16.08;;;;;;;;;;5118989;27;20376;-78
2024/01/06 03:20:35;;;;;;;19.77;16.85;;;;;;;;;;5119032;27;20051;-79
2024/01/06 03:23:01;;;;;;;18.75;16.75;;;;;;;;;;5118173;27;20513;-79
2024/01/06 03:25:27;;;;;;;16.35;14.15;;;;;;;;;;5101686;27;20086;-79
2024/01/06 03:27:53;;;;;;;19.98;15.30;;;;;;;;;;5137678;27;20387;-79
2024/01/06 03:30:19;;;;;;;23.08;17.42;;;;;;;;;;5119362;27;20043;-79
2024/01/06 03:32:45;;;;;;;19.67;15.57;;;;;;;;;;5136825;27;20086;-79
2024/01/06 03:35:11;;;;;;;19.98;16.80;;;;;;;;;;5118617;27;20059;-78
2024/01/06 03:37:37;;;;;;;19.77;16.60;;;;;;;;;;5117594;28;20043;-79
2024/01/06 03:40:03;;;;;;;19.05;16.60;;;;;;;;;;5136260;27;20054;-79
2024/01/06 03:42:29;;;;;;;20.50;16.45;;;;;;;;;;5118222;27;20043;-78
2024/01/06 03:44:55;;;;;;;19.95;16.73;;;;;;;;;;5114239;28;20086;-79
2024/01/06 03:47:21;;;;;;;19.77;16.42;;;;;;;;;;5114515;28;20131;-79
2024/01/06 03:49:48;;;;;;;23.00;17.98;;;;;;;;;;5115226;28;20059;-79
2024/01/06 03:52:14;;;;;;;21.65;18.08;;;;;;;;;;5115402;28;20043;-79
2024/01/06 03:54:40;;;;;;;22.02;16.30;;;;;;;;;;5115780;28;20061;-79
2024/01/06 03:57:06;;;;;;;23.75;18.70;;;;;;;;;;5115675;28;20096;-79
2024/01/06 03:59:32;;;;;;;21.98;17.98;;;;;;;;;;5114661;28;20039;-79
2024/01/06 04:01:58;;;;;;;25.15;18.52;;;;;;;;;;5114365;28;20054;-79
2024/01/06 04:04:24;;;;;;;25.40;18.23;;;;;;;;;;5114509;28;20044;-79
2024/01/06 04:06:50;;;;;;;22.50;18.90;;;;;;;;;;5115472;28;20130;-79
2024/01/06 04:09:16;;;;;;;23.25;17.95;;;;;;;;;;5115465;28;20058;-79
2024/01/06 04:11:42;;;;;;;19.55;16.65;;;;;;;;;;5114591;28;20489;-79
2024/01/06 04:14:08;;;;;;;18.23;15.55;;;;;;;;;;5115655;28;20070;-79
2024/01/06 04:16:34;;;;;;;19.10;16.40;;;;;;;;;;5115390;28;20050;-79
2024/01/06 04:19:00;;;;;;;21.95;17.38;;;;;;;;;;5115269;28;20047;-79
2024/01/06 04:21:26;;;;;;;20.48;16.73;;;;;;;;;;5113645;28;20060;-79
2024/01/06 04:23:52;;;;;;;20.83;17.02;;;;;;;;;;5100961;28;20043;-79
2024/01/06 04:26:18;;;;;;;22.65;16.15;;;;;;;;;;5092877;28;20040;-78
2024/01/06 04:28:44;;;;;;;21.15;16.55;;;;;;;;;;5094043;28;20043;-79
2024/01/06 04:31:10;;;;;;;24.33;16.90;;;;;;;;;;5076920;28;20144;-79
2024/01/06 04:33:36;;;;;;;22.02;16.90;;;;;;;;;;5094614;28;20051;-79
2024/01/06 04:36:03;;;;;;;21.15;16.63;;;;;;;;;;5076717;28;20040;-79
2024/01/06 04:38:29;;;;;;;19.70;16.05;;;;;;;;;;5094497;28;20044;-79
2024/01/06 04:40:55;;;;;;;20.92;16.65;;;;;;;;;;5094480;28;20043;-78
2024/01/06 04:43:21;;;;;;;20.02;16.27;;;;;;;;;;5096936;28;20062;-78
2024/01/06 04:45:47;;;;;;;21.70;16.88;;;;;;;;;;5079980;28;20043;-79
2024/01/06 04:48:13;;;;;;;21.45;17.67;;;;;;;;;;5096815;28;20047;-79
2024/01/06 04:50:39;;;;;;;21.65;16.92;;;;;;;;;;5114179;28;20515;-79
2024/01/06 04:53:05;;;;;;;21.15;16.77;;;;;;;;;;5096323;28;20395;-79
2024/01/06 04:55:31;;;;;;;23.88;17.40;;;;;;;;;;5097330;28;20142;-79
2024/01/06 04:57:57;;;;;;;20.88;15.77;;;;;;;;;;5096724;28;20434;-79
2024/01/06 05:00:25;;;;;;;19.92;17.08;;;;;;;;;;5096664;28;20044;-79
2024/01/06 05:02:51;;;;;;;19.83;17.27;;;;;;;;;;5114572;28;20388;-79
2024/01/06 05:05:17;;;;;;;24.02;16.90;;;;;;;;;;5114187;28;20035;-79
2024/01/06 05:07:43;;;;;;;20.98;15.90;;;;;;;;;;5114474;28;20055;-79
2024/01/06 05:10:09;;;;;;;18.98;16.52;;;;;;;;;;5114391;28;20048;-78
2024/01/06 05:12:36;;;;;;;19.98;16.45;;;;;;;;;;5114404;28;20138;-79
2024/01/06 05:15:02;;;;;;;21.88;16.08;;;;;;;;;;5114405;28;20461;-79
2024/01/06 05:17:28;;;;;;;17.40;15.27;;;;;;;;;;5114357;28;20048;-79
2024/01/06 05:19:56;;;;;;;24.48;16.40;;;;;;;;;;5114160;28;20146;-79
2024/01/06 05:22:22;;;;;;;19.27;14.00;;;;;;;;;;5095930;28;20051;-79
2024/01/06 05:24:48;;;;;;;18.55;14.90;;;;;;;;;;5096344;28;20040;-79
2024/01/06 05:27:14;;;;;;;17.98;14.50;;;;;;;;;;5096329;28;20431;-79
2024/01/06 05:29:40;;;;;;;21.23;16.23;;;;;;;;;;5096082;28;20395;-79
2024/01/06 05:32:07;;;;;;;19.05;15.40;;;;;;;;;;5096309;28;20399;-79
2024/01/06 05:34:33;;;;;;;19.95;14.98;;;;;;;;;;5095304;28;20054;-79
2024/01/06 05:36:59;;;;;;;21.80;15.85;;;;;;;;;;5113313;28;20043;-79
2024/01/06 05:39:25;;;;;;;19.63;15.35;;;;;;;;;;5095437;28;20047;-78
2024/01/06 05:41:51;;;;;;;20.10;15.88;;;;;;;;;;5114032;28;20048;-78
2024/01/06 05:44:17;;;;;;;19.73;15.77;;;;;;;;;;5095654;28;20098;-79
2024/01/06 05:46:43;;;;;;;22.38;14.38;;;;;;;;;;5113721;28;20491;-79
2024/01/06 05:49:10;;;;;;;17.05;14.32;;;;;;;;;;5113930;28;20569;-79
2024/01/06 05:51:36;;;;;;;19.45;15.02;;;;;;;;;;5095501;28;20101;-78
2024/01/06 05:54:02;;;;;;;18.17;13.88;;;;;;;;;;5113738;28;20483;-79
2024/01/06 05:56:28;;;;;;;20.42;14.65;;;;;;;;;;5095999;28;20047;-79
2024/01/06 05:58:55;;;;;;;22.13;15.77;;;;;;;;;;5114413;28;20054;-79
2024/01/06 06:01:22;;;;;;;19.98;14.95;;;;;;;;;;5096634;28;20044;-79
2024/01/06 06:03:49;;;;;;;18.23;14.75;;;;;;;;;;5099952;28;20475;-79
2024/01/06 06:06:15;;;;;;;21.10;14.55;;;;;;;;;;5117766;28;20059;-79
2024/01/06 06:08:42;;;;;;;17.40;14.00;;;;;;;;;;5117791;28;20054;-79
2024/01/06 06:11:11;;;;;;;16.52;12.82;;;;;;;;;;5117806;28;20107;-79
2024/01/06 06:13:41;;;;;;;21.27;13.68;;;;;;;;;;5117695;28;20054;-79
2024/01/06 06:16:07;;;;;;;18.27;12.77;;;;;;;;;;5100184;28;20047;-79
2024/01/06 06:18:34;;;;;;;17.67;12.10;;;;;;;;;;5099650;28;20126;-79
2024/01/06 06:21:00;;;;;;;19.88;13.88;;;;;;;;;;5130924;27;20047;-79
2024/01/06 06:23:28;;;;;;;20.42;14.20;;;;;;;;;;5119738;27;20046;-79
2024/01/06 06:25:54;;;;;;;16.30;14.07;;;;;;;;;;5137954;27;20047;-79
2024/01/06 06:28:20;;;;;;;49.40;13.48;;;;;;;;;;5138158;27;20401;-79
2024/01/06 06:30:47;;;;;;;17.77;10.80;;;;;;;;;;5138053;27;20045;-79
2024/01/06 06:33:13;;;;;;;21.00;11.27;;;;;;;;;;5119802;27;20055;-79
2024/01/06 06:35:39;;;;;;;17.67;12.82;;;;;;;;;;5137856;27;20125;-79
2024/01/06 06:38:05;;;;;;;21.33;13.48;;;;;;;;;;5137850;27;20043;-79
2024/01/06 06:40:31;;;;;;;18.75;12.88;;;;;;;;;;5119663;27;20072;-79
2024/01/06 06:42:57;;;;;;;16.52;11.95;;;;;;;;;;5137748;27;20051;-79
2024/01/06 06:45:23;;;;;;;15.80;12.32;;;;;;;;;;5137436;27;20195;-79
2024/01/06 06:47:50;;;;;;;17.85;12.23;;;;;;;;;;5119560;27;20050;-79
2024/01/06 06:50:16;;;;;;;15.43;12.85;;;;;;;;;;5119574;27;20395;-79
2024/01/06 06:52:43;;;;;;;16.08;12.15;;;;;;;;;;5137160;27;20047;-79
2024/01/06 06:55:09;;;;;;;16.25;12.82;;;;;;;;;;5137469;27;20471;-79
2024/01/06 06:57:35;;;;;;;24.35;12.50;;;;;;;;;;5137446;27;20078;-79
2024/01/06 07:00:01;;;;;;;21.95;13.80;;;;;;;;;;5119271;27;20047;-79
2024/01/06 07:02:28;;;;;;;38.65;13.77;;;;;;;;;;5119315;27;20082;-79
2024/01/06 07:04:54;;;;;;;20.33;13.15;;;;;;;;;;5137483;27;20067;-79
2024/01/06 07:07:20;;;;;;;18.38;12.38;;;;;;;;;;5119366;27;20058;-79
2024/01/06 07:09:46;;;;;;;20.52;13.32;;;;;;;;;;5119253;27;20051;-79
2024/01/06 07:12:12;;;;;;;15.68;11.68;;;;;;;;;;5118964;27;20088;-79
2024/01/06 07:14:38;;;;;;;16.70;13.75;;;;;;;;;;5137074;27;20043;-79
2024/01/06 07:17:04;;;;;;;18.48;14.30;;;;;;;;;;5118947;27;20048;-79
2024/01/06 07:19:32;;;;;;;20.98;14.30;;;;;;;;;;5118741;27;20087;-79
2024/01/06 07:21:58;;;;;;;19.85;13.98;;;;;;;;;;5118285;27;20514;-79
2024/01/06 07:24:24;;;;;;;18.35;14.85;;;;;;;;;;5136728;27;20367;-79
2024/01/06 07:26:50;;;;;;;18.70;14.15;;;;;;;;;;5118774;27;20046;-78
2024/01/06 07:29:16;;;;;;;18.20;13.98;;;;;;;;;;5118385;27;20095;-78
2024/01/06 07:31:42;;;;;;;18.45;13.93;;;;;;;;;;5136366;27;20043;-78
2024/01/06 07:34:08;;;;;;;19.08;14.48;;;;;;;;;;5136727;27;20046;-79
2024/01/06 07:36:34;;;;;;;17.50;13.50;;;;;;;;;;5101536;27;20476;-79
2024/01/06 07:39:01;;;;;;;23.50;16.05;;;;;;;;;;5136632;27;20058;-79
2024/01/06 07:41:27;;;;;;;18.65;14.10;;;;;;;;;;5136602;27;20043;-79
2024/01/06 07:43:53;;;;;;;18.65;14.63;;;;;;;;;;5136181;27;20146;-79
2024/01/06 07:46:19;;;;;;;19.98;15.18;;;;;;;;;;5118135;27;20463;-79
2024/01/06 07:48:45;;;;;;;18.30;14.98;;;;;;;;;;5136429;27;20103;-79
2024/01/06 07:51:11;;;;;;;18.45;14.63;;;;;;;;;;5118491;27;20126;-79
2024/01/06 07:53:37;;;;;;;17.98;14.10;;;;;;;;;;5135904;27;20043;-79
2024/01/06 07:56:04;;;;;;;18.00;14.77;;;;;;;;;;5118155;27;20039;-79
2024/01/06 07:58:30;;;;;;;16.67;14.35;;;;;;;;;;5101203;27;20039;-78
2024/01/06 08:00:56;;;;;;;20.77;15.63;;;;;;;;;;5118129;27;20043;-79
2024/01/06 08:03:22;;;;;;;20.05;14.82;;;;;;;;;;5117797;27;20051;-78
2024/01/06 08:05:48;;;;;;;16.92;13.85;;;;;;;;;;5117867;27;20039;-78
2024/01/06 08:08:16;;;;;;;18.38;13.98;;;;;;;;;;5135931;27;20051;-79
2024/01/06 08:10:42;;;;;;;15.02;12.68;;;;;;;;;;5135935;27;20047;-79
2024/01/06 08:13:08;;;;;;;14.05;11.93;;;;;;;;;;5135977;27;20126;-79
2024/01/06 08:15:34;;;;;;;14.15;12.25;;;;;;;;;;5117764;27;20133;-79
2024/01/06 08:18:01;;;;;;;14.43;11.98;;;;;;;;;;5135820;27;20479;-79
2024/01/06 08:20:27;;;;;;;14.43;12.93;;;;;;;;;;5117722;27;20047;-78
2024/01/06 08:22:53;;;;;;;16.95;12.85;;;;;;;;;;5135055;27;20498;-79
2024/01/06 08:25:19;;;;;;;13.30;11.52;;;;;;;;;;5135124;27;20043;-79
2024/01/06 08:27:45;;;;;;;16.20;12.93;;;;;;;;;;5117571;27;20094;-78
2024/01/06 08:30:12;;;;;;;14.63;13.13;;;;;;;;;;5117783;27;20055;-78
2024/01/06 08:32:38;;;;;;;14.32;12.90;;;;;;;;;;5135665;27;20130;-78
2024/01/06 08:35:04;;;;;;;16.38;13.30;;;;;;;;;;5135470;27;20587;-78
2024/01/06 08:37:30;;;;;;;14.85;13.35;;;;;;;;;;5135259;27;20622;-78
2024/01/06 08:39:56;;;;;;;14.88;12.98;;;;;;;;;;5135677;27;20039;-78
2024/01/06 08:42:25;;;;;;;15.55;13.43;;;;;;;;;;5117294;27;20047;-78
2024/01/06 08:44:51;;;;;;;16.30;14.05;;;;;;;;;;5116492;27;20126;-78
2024/01/06 08:47:17;;;;;;;14.50;12.32;;;;;;;;;;5135293;27;20047;-78
2024/01/06 08:49:43;;;;;;;17.33;13.60;;;;;;;;;;5117098;27;20035;-78
2024/01/06 08:52:10;;;;;;;13.88;12.48;;;;;;;;;;5117279;27;20436;-78
2024/01/06 08:54:36;;;;;;;14.60;13.15;;;;;;;;;;5117365;27;20051;-78
2024/01/06 08:57:02;;;;;;;14.25;12.75;;;;;;;;;;5135061;27;20053;-78
2024/01/06 08:59:28;;;;;;;14.43;12.93;;;;;;;;;;5100090;27;20467;-78
2024/01/06 09:01:54;;;;;;;15.07;13.50;;;;;;;;;;5135123;27;20039;-78
2024/01/06 09:04:20;;;;;;;14.18;12.73;;;;;;;;;;5116998;27;20372;-78
2024/01/06 09:06:46;;;;;;;13.45;12.15;;;;;;;;;;5135002;27;20218;-79
2024/01/06 09:09:14;;;;;;;13.38;12.02;;;;;;;;;;5134992;27;20127;-78
2024/01/06 09:11:42;;;;;;;13.23;11.93;;;;;;;;;;5116712;27;20281;-78
2024/01/06 09:14:09;;;;;;;12.60;11.30;;;;;;;;;;5116761;27;20054;-78
2024/01/06 09:16:36;;;;;;;12.55;11.25;;;;;;;;;;5134620;27;20483;-78
2024/01/06 09:19:02;;;;;;;12.45;11.23;;;;;;;;;;5134827;27;20058;-78
2024/01/06 09:21:28;;;;;;;13.75;12.45;;;;;;;;;;5134439;27;20129;-78
2024/01/06 09:23:54;;;;;;;16.00;12.38;;;;;;;;;;5116712;28;20399;-78
2024/01/06 09:26:20;;;;;;;13.10;11.57;;;;;;;;;;5134718;27;20043;-79
2024/01/06 09:28:47;;;;;;;13.82;12.40;;;;;;;;;;5134771;27;20039;-79
2024/01/06 09:31:13;;;;;;;13.32;12.05;;;;;;;;;;5116633;28;20047;-78
2024/01/06 09:33:39;;;;;;;13.50;12.13;;;;;;;;;;5116805;28;20050;-79
2024/01/06 09:36:06;;;;;;;14.77;13.20;;;;;;;;;;5135104;27;20046;-79
2024/01/06 09:38:32;;;;;;;13.75;12.40;;;;;;;;;;5139131;27;20043;-79
2024/01/06 09:40:58;;;;;;;12.98;11.70;;;;;;;;;;5138911;27;20043;-79
2024/01/06 09:43:25;;;;;;;13.50;12.10;;;;;;;;;;5138713;27;20051;-78
2024/01/06 09:45:57;;;;;;;12.57;11.38;;;;;;;;;;5138948;27;20121;-79
2024/01/06 09:48:28;;;;;;;14.00;12.60;;;;;;;;;;5138871;27;20130;-79
2024/01/06 09:50:56;;;;;;;13.70;12.30;;;;;;;;;;5103896;27;20043;-78
2024/01/06 09:53:28;;;;;;;14.35;12.95;;;;;;;;;;5128139;27;20093;-78
2024/01/06 09:55:55;;;;;;;13.52;12.13;;;;;;;;;;5100094;28;20050;-78
2024/01/06 09:58:21;;;;;;;14.32;12.82;;;;;;;;;;5100096;28;20052;-78
2024/01/06 10:00:49;;;;;;;13.80;12.38;;;;;;;;;;5099855;28;20138;-79
2024/01/06 10:03:16;;;;;;;14.18;12.68;;;;;;;;;;5100030;28;20052;-78
2024/01/06 10:05:42;;;;;;;14.10;12.70;;;;;;;;;;5117867;28;20113;-78
2024/01/06 10:08:08;;;;;;;13.85;12.40;;;;;;;;;;5099783;28;20495;-78
2024/01/06 10:10:34;;;;;;;13.35;11.95;;;;;;;;;;5099880;28;20047;-78
2024/01/06 10:13:00;;;;;;;12.55;11.35;;;;;;;;;;5118065;28;20130;-78
2024/01/06 10:15:26;;;;;;;13.27;11.90;;;;;;;;;;5117739;28;20050;-78
2024/01/06 10:17:54;;;;;;;14.07;12.68;;;;;;;;;;5117668;28;20044;-78
2024/01/06 10:20:21;;;;;;;14.43;12.98;;;;;;;;;;5099629;28;20051;-78
2024/01/06 10:22:48;;;;;;;14.63;13.20;;;;;;;;;;5099220;28;20184;-78
2024/01/06 10:25:14;;;;;;;13.77;12.45;;;;;;;;;;5117139;28;20479;-78
2024/01/06 10:27:41;;;;;;;13.45;12.25;;;;;;;;;;5099562;28;20087;-78
2024/01/06 10:30:08;;;;;;;13.13;11.75;;;;;;;;;;5117400;28;20047;-78
2024/01/06 10:32:36;;;;;;;13.95;12.48;;;;;;;;;;5117095;28;20043;-78
2024/01/06 10:35:03;;;;;;;13.93;12.32;;;;;;;;;;5099334;28;20463;-79
2024/01/06 10:37:29;;;;;;;14.38;12.98;;;;;;;;;;5082554;28;20047;-78
2024/01/06 10:40:08;;;;;;;13.77;12.43;;;;;;;;;;5099217;28;20043;-78
2024/01/06 10:42:35;;;;;;;14.00;12.40;;;;;;;;;;5117151;28;20054;-78
2024/01/06 10:45:01;;;;;;;14.88;13.43;;;;;;;;;;5116675;28;20047;-79
2024/01/06 10:47:30;;;;;;;13.70;12.40;;;;;;;;;;5116748;28;20098;-78
2024/01/06 10:49:58;;;;;;;14.30;12.82;;;;;;;;;;5117025;28;20050;-78
2024/01/06 10:52:24;;;;;;;14.20;12.55;;;;;;;;;;5098645;28;20093;-78
2024/01/06 10:54:52;;;;;;;13.80;12.50;;;;;;;;;;5117000;28;20055;-79
2024/01/06 10:57:19;;;;;;;6.95;5.63;;;;;;;;;;5098931;28;20083;-78
2024/01/06 10:59:45;;;;;;;13.68;12.38;;;;;;;;;;5116858;28;20079;-78
2024/01/06 11:02:12;;;;;;;13.82;12.52;;;;;;;;;;5116808;28;20051;-78
2024/01/06 11:04:40;;;;;;;14.40;12.98;;;;;;;;;;5117075;28;20403;-78
2024/01/06 11:07:06;;;;;;;14.60;13.15;;;;;;;;;;5098793;28;20099;-79
2024/01/06 11:09:35;;;;;;;13.90;12.05;;;;;;;;;;5098763;28;20048;-78
2024/01/06 11:12:01;;;;;;;13.52;12.23;;;;;;;;;;5116808;28;20055;-78
2024/01/06 11:14:28;;;;;;;15.77;14.10;;;;;;;;;;5116640;28;20409;-78
2024/01/06 11:16:55;;;;;;;15.23;13.73;;;;;;;;;;5098597;28;20047;-78
2024/01/06 11:19:36;;;;;;;15.35;13.85;;;;;;;;;;5116519;28;20086;-78
2024/01/06 11:22:21;;;;;;;14.07;12.68;;;;;;;;;;5098079;28;20089;-78
2024/01/06 11:24:51;;;;;;;13.80;12.43;;;;;;;;;;5116405;28;20052;-78
2024/01/06 11:27:18;;;;;;;16.33;14.63;;;;;;;;;;5116362;28;20103;-78
2024/01/06 11:29:45;;;;;;;15.52;13.95;;;;;;;;;;5116530;28;20131;-78
2024/01/06 11:32:21;;;;;;;16.27;14.13;;;;;;;;;;5116241;28;20617;-78
2024/01/06 11:34:54;;;;;;;12.50;10.95;;;;;;;;;;5116483;28;20503;-78
2024/01/06 11:37:24;;;;;;;16.52;14.73;;;;;;;;;;5098343;28;20051;-78
2024/01/06 11:39:50;;;;;;;14.02;12.15;;;;;;;;;;5116083;28;20044;-78
2024/01/06 11:42:16;;;;;;;16.38;14.65;;;;;;;;;;5116089;28;20065;-78
2024/01/06 11:44:50;;;;;;;16.58;14.63;;;;;;;;;;5115541;28;20055;-78
2024/01/06 11:47:17;;;;;;;17.25;15.13;;;;;;;;;;5116236;28;20055;-78
2024/01/06 11:49:46;;;;;;;17.65;14.35;;;;;;;;;;5098109;28;20046;-78
2024/01/06 11:52:12;;;;;;;15.73;14.15;;;;;;;;;;5098063;28;20048;-78
2024/01/06 11:54:39;;;;;;;18.58;16.52;;;;;;;;;;5097962;28;20048;-78
2024/01/06 11:57:05;;;;;;;17.27;14.82;;;;;;;;;;5115759;28;20131;-78
2024/01/06 11:59:31;;;;;;;16.63;14.80;;;;;;;;;;5114860;28;20054;-78
2024/01/06 12:01:57;;;;;;;17.20;15.40;;;;;;;;;;5115686;28;20054;-78
2024/01/06 12:04:25;;;;;;;16.83;15.13;;;;;;;;;;5115588;28;20039;-78
2024/01/06 12:06:51;;;;;;;16.95;15.23;;;;;;;;;;5115554;28;20130;-78
2024/01/06 12:09:19;;;;;;;18.08;16.15;;;;;;;;;;5115743;28;20062;-78
2024/01/06 12:11:46;;;;;;;18.50;15.65;;;;;;;;;;5115464;28;20048;-78
2024/01/06 12:14:13;;;;;;;18.42;16.38;;;;;;;;;;5115242;28;20051;-78
2024/01/06 12:16:39;;;;;;;18.38;16.33;;;;;;;;;;5097420;28;20054;-78
2024/01/06 12:19:05;;;;;;;18.52;16.48;;;;;;;;;;5115374;28;20184;-78
2024/01/06 12:21:33;;;;;;;19.30;17.25;;;;;;;;;;5115265;28;20051;-78
2024/01/06 12:24:20;;;;;;;21.45;17.50;;;;;;;;;;5114838;28;20044;-78
2024/01/06 12:26:46;;;;;;;19.13;16.80;;;;;;;;;;5115083;28;20039;-79
2024/01/06 12:29:15;;;;;;;17.67;15.13;;;;;;;;;;5097269;28;20054;-78
2024/01/06 12:31:42;;;;;;;19.58;17.48;;;;;;;;;;5115088;28;20100;-78
2024/01/06 12:34:08;;;;;;;19.20;17.10;;;;;;;;;;5115098;28;20070;-78
2024/01/06 12:36:38;;;;;;;20.42;17.65;;;;;;;;;;5115311;28;20051;-78
2024/01/06 12:39:05;;;;;;;19.27;15.70;;;;;;;;;;5114815;28;20048;-78
2024/01/06 12:41:34;;;;;;;18.42;16.08;;;;;;;;;;5114623;28;20407;-78
2024/01/06 12:44:01;;;;;;;20.98;17.33;;;;;;;;;;5114642;28;20051;-78
2024/01/06 12:46:28;;;;;;;17.88;16.00;;;;;;;;;;5097019;28;20083;-78
2024/01/06 12:48:55;;;;;;;17.77;15.90;;;;;;;;;;5096423;28;20044;-78
2024/01/06 12:51:21;;;;;;;19.73;17.48;;;;;;;;;;5114710;28;20066;-78
2024/01/06 12:53:47;;;;;;;19.83;17.05;;;;;;;;;;5096071;28;20079;-79
2024/01/06 12:56:14;;;;;;;20.60;17.80;;;;;;;;;;5096763;28;20035;-78
2024/01/06 12:58:40;;;;;;;19.50;16.48;;;;;;;;;;5096620;28;20058;-78
2024/01/06 13:01:07;;;;;;;18.80;16.85;;;;;;;;;;5096778;28;20040;-78
2024/01/06 13:03:33;;;;;;;20.55;18.35;;;;;;;;;;5114545;28;20044;-78
2024/01/06 13:06:00;;;;;;;19.55;16.77;;;;;;;;;;5096333;28;20079;-78
2024/01/06 13:08:29;;;;;;;18.13;16.13;;;;;;;;;;5096633;28;20048;-84
2024/01/06 13:10:56;;;;;;;18.42;16.48;;;;;;;;;;5096291;28;20077;-78
2024/01/06 13:13:22;;;;;;;17.23;15.32;;;;;;;;;;5096735;28;20380;-78
2024/01/06 13:15:48;;;;;;;16.95;15.15;;;;;;;;;;5146314;27;20509;-79
2024/01/06 13:18:14;;;;;;;17.30;15.43;;;;;;;;;;5137199;27;20046;-79
2024/01/06 13:20:41;;;;;;;16.75;14.65;;;;;;;;;;5155587;27;20054;-79
2024/01/06 13:23:08;;;;;;;16.88;14.52;;;;;;;;;;5136697;27;20050;-78
2024/01/06 13:25:35;;;;;;;15.30;13.70;;;;;;;;;;5155318;27;20043;-79
2024/01/06 13:28:01;;;;;;;16.40;14.43;;;;;;;;;;5137298;27;20050;-78
2024/01/06 13:30:27;;;;;;;15.32;13.73;;;;;;;;;;5155563;27;20088;-78
2024/01/06 13:32:54;;;;;;;16.63;14.82;;;;;;;;;;5155532;27;20043;-78
2024/01/06 13:35:20;;;;;;;17.70;15.80;;;;;;;;;;5137020;27;20057;-78
2024/01/06 13:37:50;;;;;;;69.93;50.85;;;;;;;;;;5155482;27;20045;-78
2024/01/06 13:40:19;;;;;;;27.58;23.55;;;;;;;;;;5155473;27;20390;-78
2024/01/06 13:42:45;;;;;;;26.15;22.55;;;;;;;;;;5136933;27;20074;-78
2024/01/06 13:45:12;;;;;;;18.88;16.88;;;;;;;;;;5154824;27;20047;-78
2024/01/06 13:47:41;;;;;;;17.73;15.40;;;;;;;;;;5155398;27;20053;-78
2024/01/06 13:50:07;;;;;;;19.23;17.23;;;;;;;;;;5155346;27;20043;-78
2024/01/06 13:52:34;;;;;;;18.42;15.93;;;;;;;;;;5136667;27;20046;-78
2024/01/06 13:55:00;;;;;;;17.45;15.65;;;;;;;;;;5136758;27;20074;-78
2024/01/06 13:57:26;;;;;;;17.77;15.80;;;;;;;;;;5155283;27;20435;-78
2024/01/06 13:59:52;;;;;;;17.65;15.85;;;;;;;;;;5155280;27;20122;-78
2024/01/06 14:02:18;;;;;;;17.70;15.70;;;;;;;;;;5136820;27;20038;-78
2024/01/06 14:04:45;;;;;;;17.73;15.82;;;;;;;;;;5155126;27;20042;-78
2024/01/06 14:07:11;;;;;;;18.35;16.08;;;;;;;;;;5155233;27;20130;-78
2024/01/06 14:09:37;;;;;;;16.33;14.30;;;;;;;;;;5136986;27;20149;-78
2024/01/06 14:12:05;;;;;;;17.63;15.75;;;;;;;;;;5136996;27;20366;-78
2024/01/06 14:14:34;;;;;;;18.23;16.33;;;;;;;;;;5155136;27;20051;-80